Avondale, Arizona
Current Conditions -  °F | °C
As of 3:47 PM on Friday 24 Oct 2014 (Local Time) from KGYR Reporting Station
Clear Clear  
Wind Chill: 93°   Ceiling: Unl
Heat Index: 93°   Visibility: 10mi
Dew Point: 54°   Wind: 3mph
Humidity: 26%   Direction: NA
Pressure: 29.95"   Gusts: NA
Location:  33.44°N, 112.34°W
Report Text: KGYR 242247Z VRB03KT 10SM SKC 34/12 A2995
Loading
Personal Weather Stations






























Interactive Weather Map
Tropical Storm Tracking
New forecast layout! Learn more

10-Day Weather Forecast

Advertisements
Track Severe Weather on mobile